sensor_id;sensor_type;location;lat;lon;timestamp;temperature;humidity
9209;DHT22;4639;48.862;9.188;2024-01-07T00:00:38;6.30;99.90
9209;DHT22;4639;48.862;9.188;2024-01-07T00:03:04;6.30;99.90
9209;DHT22;4639;48.862;9.188;2024-01-07T00:05:29;6.20;99.90
9209;DHT22;4639;48.862;9.188;2024-01-07T00:07:55;6.30;99.90
9209;DHT22;4639;48.862;9.188;2024-01-07T00:10:20;6.30;99.90
9209;DHT22;4639;48.862;9.188;2024-01-07T00:12:46;6.20;99.90
9209;DHT22;4639;48.862;9.188;2024-01-07T00:15:13;6.20;99.90
9209;DHT22;4639;48.862;9.188;2024-01-07T00:17:39;6.20;99.90
9209;DHT22;4639;48.862;9.188;2024-01-07T00:20:05;6.20;99.90
9209;DHT22;4639;48.862;9.188;2024-01-07T00:22:31;6.20;99.90
9209;DHT22;4639;48.862;9.188;2024-01-07T00:24:56;6.20;99.90
9209;DHT22;4639;48.862;9.188;2024-01-07T00:27:22;6.20;99.90
9209;DHT22;4639;48.862;9.188;2024-01-07T00:29:47;6.20;99.90
9209;DHT22;4639;48.862;9.188;2024-01-07T00:32:13;6.20;99.90
9209;DHT22;4639;48.862;9.188;2024-01-07T00:34:39;6.10;99.90
9209;DHT22;4639;48.862;9.188;2024-01-07T00:37:05;6.20;99.90
9209;DHT22;4639;48.862;9.188;2024-01-07T00:39:30;6.10;99.90
9209;DHT22;4639;48.862;9.188;2024-01-07T00:41:56;6.10;99.90
9209;DHT22;4639;48.862;9.188;2024-01-07T00:44:21;6.10;99.90
9209;DHT22;4639;48.862;9.188;2024-01-07T00:46:47;6.10;99.90
9209;DHT22;4639;48.862;9.188;2024-01-07T00:49:13;6.10;99.90
9209;DHT22;4639;48.862;9.188;2024-01-07T00:51:38;6.10;99.90
9209;DHT22;4639;48.862;9.188;2024-01-07T00:54:04;6.10;99.90
9209;DHT22;4639;48.862;9.188;2024-01-07T00:56:30;6.10;99.90
9209;DHT22;4639;48.862;9.188;2024-01-07T00:58:55;6.10;99.90
9209;DHT22;4639;48.862;9.188;2024-01-07T01:01:22;6.10;99.90
9209;DHT22;4639;48.862;9.188;2024-01-07T01:03:47;6.10;99.90
9209;DHT22;4639;48.862;9.188;2024-01-07T01:06:13;6.10;99.90
9209;DHT22;4639;48.862;9.188;2024-01-07T01:08:39;6.10;99.90
9209;DHT22;4639;48.862;9.188;2024-01-07T01:11:05;6.00;99.90
9209;DHT22;4639;48.862;9.188;2024-01-07T01:13:31;6.00;99.90
9209;DHT22;4639;48.862;9.188;2024-01-07T01:15:59;6.20;99.90
9209;DHT22;4639;48.862;9.188;2024-01-07T01:18:25;6.10;99.90
9209;DHT22;4639;48.862;9.188;2024-01-07T01:20:50;6.10;99.90
9209;DHT22;4639;48.862;9.188;2024-01-07T01:23:16;6.10;99.90
9209;DHT22;4639;48.862;9.188;2024-01-07T01:25:41;6.10;99.90
9209;DHT22;4639;48.862;9.188;2024-01-07T01:28:07;6.10;99.90
9209;DHT22;4639;48.862;9.188;2024-01-07T01:30:32;6.00;99.90
9209;DHT22;4639;48.862;9.188;2024-01-07T01:32:58;6.10;99.90
9209;DHT22;4639;48.862;9.188;2024-01-07T01:35:24;6.10;99.90
9209;DHT22;4639;48.862;9.188;2024-01-07T01:37:49;6.20;99.90
9209;DHT22;4639;48.862;9.188;2024-01-07T01:40:17;6.40;99.90
9209;DHT22;4639;48.862;9.188;2024-01-07T01:42:45;6.30;99.90
9209;DHT22;4639;48.862;9.188;2024-01-07T01:45:14;6.30;99.90
9209;DHT22;4639;48.862;9.188;2024-01-07T01:47:40;6.30;99.90
9209;DHT22;4639;48.862;9.188;2024-01-07T01:50:06;6.40;99.90
9209;DHT22;4639;48.862;9.188;2024-01-07T01:52:32;6.30;99.90
9209;DHT22;4639;48.862;9.188;2024-01-07T01:54:58;6.30;99.90
9209;DHT22;4639;48.862;9.188;2024-01-07T01:57:31;6.30;99.90
9209;DHT22;4639;48.862;9.188;2024-01-07T01:59:57;6.20;99.90
9209;DHT22;4639;48.862;9.188;2024-01-07T02:02:28;6.20;99.90
9209;DHT22;4639;48.862;9.188;2024-01-07T02:04:56;6.30;99.90
9209;DHT22;4639;48.862;9.188;2024-01-07T02:07:21;6.30;99.90
9209;DHT22;4639;48.862;9.188;2024-01-07T02:09:47;6.30;99.90
9209;DHT22;4639;48.862;9.188;2024-01-07T02:12:13;6.40;99.90
9209;DHT22;4639;48.862;9.188;2024-01-07T02:14:39;6.30;99.90
9209;DHT22;4639;48.862;9.188;2024-01-07T02:17:05;6.20;99.90
9209;DHT22;4639;48.862;9.188;2024-01-07T02:19:30;6.30;99.90
9209;DHT22;4639;48.862;9.188;2024-01-07T02:21:56;6.20;99.90
9209;DHT22;4639;48.862;9.188;2024-01-07T02:24:21;6.20;99.90
9209;DHT22;4639;48.862;9.188;2024-01-07T02:26:48;6.30;99.90
9209;DHT22;4639;48.862;9.188;2024-01-07T02:29:13;6.10;99.90
9209;DHT22;4639;48.862;9.188;2024-01-07T02:31:39;6.10;99.90
9209;DHT22;4639;48.862;9.188;2024-01-07T02:34:04;6.10;99.90
9209;DHT22;4639;48.862;9.188;2024-01-07T02:36:30;6.10;99.90
9209;DHT22;4639;48.862;9.188;2024-01-07T02:38:55;6.10;99.90
9209;DHT22;4639;48.862;9.188;2024-01-07T02:41:21;6.10;99.90
9209;DHT22;4639;48.862;9.188;2024-01-07T02:43:51;6.00;99.90
9209;DHT22;4639;48.862;9.188;2024-01-07T02:46:16;6.10;99.90
9209;DHT22;4639;48.862;9.188;2024-01-07T02:48:42;6.10;99.90
9209;DHT22;4639;48.862;9.188;2024-01-07T02:51:08;6.10;99.90
9209;DHT22;4639;48.862;9.188;2024-01-07T02:53:34;6.10;99.90
9209;DHT22;4639;48.862;9.188;2024-01-07T02:56:00;6.10;99.90
9209;DHT22;4639;48.862;9.188;2024-01-07T02:58:25;6.10;99.90
9209;DHT22;4639;48.862;9.188;2024-01-07T03:00:51;6.00;99.90
9209;DHT22;4639;48.862;9.188;2024-01-07T03:03:16;6.10;99.90
9209;DHT22;4639;48.862;9.188;2024-01-07T03:05:42;6.10;99.90
9209;DHT22;4639;48.862;9.188;2024-01-07T03:08:08;6.10;99.90
9209;DHT22;4639;48.862;9.188;2024-01-07T03:10:33;6.10;99.90
9209;DHT22;4639;48.862;9.188;2024-01-07T03:13:00;6.10;99.90
9209;DHT22;4639;48.862;9.188;2024-01-07T03:15:26;6.10;99.90
9209;DHT22;4639;48.862;9.188;2024-01-07T03:17:51;6.30;99.90
9209;DHT22;4639;48.862;9.188;2024-01-07T03:20:17;6.20;99.90
9209;DHT22;4639;48.862;9.188;2024-01-07T03:22:42;6.10;99.90
9209;DHT22;4639;48.862;9.188;2024-01-07T03:25:08;6.10;99.90
9209;DHT22;4639;48.862;9.188;2024-01-07T03:27:34;6.10;99.90
9209;DHT22;4639;48.862;9.188;2024-01-07T03:29:59;6.20;99.90
9209;DHT22;4639;48.862;9.188;2024-01-07T03:32:25;6.20;99.90
9209;DHT22;4639;48.862;9.188;2024-01-07T03:34:50;6.10;99.90
9209;DHT22;4639;48.862;9.188;2024-01-07T03:37:16;6.00;99.90
9209;DHT22;4639;48.862;9.188;2024-01-07T03:39:43;5.90;99.90
9209;DHT22;4639;48.862;9.188;2024-01-07T03:42:09;5.80;99.90
9209;DHT22;4639;48.862;9.188;2024-01-07T03:44:37;5.90;99.90
9209;DHT22;4639;48.862;9.188;2024-01-07T03:47:04;5.80;99.90
9209;DHT22;4639;48.862;9.188;2024-01-07T03:49:30;5.90;99.90
9209;DHT22;4639;48.862;9.188;2024-01-07T03:51:55;5.80;99.90
9209;DHT22;4639;48.862;9.188;2024-01-07T03:54:21;5.80;99.90
9209;DHT22;4639;48.862;9.188;2024-01-07T03:56:47;5.80;99.90
9209;DHT22;4639;48.862;9.188;2024-01-07T03:59:12;5.80;99.90
9209;DHT22;4639;48.862;9.188;2024-01-07T04:01:38;5.70;99.90
9209;DHT22;4639;48.862;9.188;2024-01-07T04:04:03;5.70;99.90
9209;DHT22;4639;48.862;9.188;2024-01-07T04:06:29;5.80;99.90
9209;DHT22;4639;48.862;9.188;2024-01-07T04:08:54;5.70;99.90
9209;DHT22;4639;48.862;9.188;2024-01-07T04:11:21;5.70;99.90
9209;DHT22;4639;48.862;9.188;2024-01-07T04:13:47;5.70;99.90
9209;DHT22;4639;48.862;9.188;2024-01-07T04:16:19;5.70;99.90
9209;DHT22;4639;48.862;9.188;2024-01-07T04:18:46;5.70;99.90
9209;DHT22;4639;48.862;9.188;2024-01-07T04:21:12;5.70;99.90
9209;DHT22;4639;48.862;9.188;2024-01-07T04:23:39;5.60;99.90
9209;DHT22;4639;48.862;9.188;2024-01-07T04:26:07;5.60;99.90
9209;DHT22;4639;48.862;9.188;2024-01-07T04:28:33;5.60;99.90
9209;DHT22;4639;48.862;9.188;2024-01-07T04:30:59;5.80;99.90
9209;DHT22;4639;48.862;9.188;2024-01-07T04:33:24;5.70;99.90
9209;DHT22;4639;48.862;9.188;2024-01-07T04:35:50;5.80;99.90
9209;DHT22;4639;48.862;9.188;2024-01-07T04:38:15;5.80;99.90
9209;DHT22;4639;48.862;9.188;2024-01-07T04:40:41;5.80;99.90
9209;DHT22;4639;48.862;9.188;2024-01-07T04:43:06;5.70;99.90
9209;DHT22;4639;48.862;9.188;2024-01-07T04:45:32;5.60;99.90
9209;DHT22;4639;48.862;9.188;2024-01-07T04:47:57;5.60;99.90
9209;DHT22;4639;48.862;9.188;2024-01-07T04:50:23;5.60;99.90
9209;DHT22;4639;48.862;9.188;2024-01-07T04:52:49;5.70;99.90
9209;DHT22;4639;48.862;9.188;2024-01-07T04:55:15;5.70;99.90
9209;DHT22;4639;48.862;9.188;2024-01-07T04:57:41;5.70;99.90
9209;DHT22;4639;48.862;9.188;2024-01-07T05:00:07;5.70;99.90
9209;DHT22;4639;48.862;9.188;2024-01-07T05:02:32;5.60;99.90
9209;DHT22;4639;48.862;9.188;2024-01-07T05:04:58;5.50;99.90
9209;DHT22;4639;48.862;9.188;2024-01-07T05:07:23;5.60;99.90
9209;DHT22;4639;48.862;9.188;2024-01-07T05:09:49;5.50;99.90
9209;DHT22;4639;48.862;9.188;2024-01-07T05:12:15;5.60;99.90
9209;DHT22;4639;48.862;9.188;2024-01-07T05:14:41;5.60;99.90
9209;DHT22;4639;48.862;9.188;2024-01-07T05:17:09;5.60;99.90
9209;DHT22;4639;48.862;9.188;2024-01-07T05:19:35;5.50;99.90
9209;DHT22;4639;48.862;9.188;2024-01-07T05:22:00;5.50;99.90
9209;DHT22;4639;48.862;9.188;2024-01-07T05:24:26;5.60;99.90
9209;DHT22;4639;48.862;9.188;2024-01-07T05:26:52;5.60;99.90
9209;DHT22;4639;48.862;9.188;2024-01-07T05:29:18;5.60;99.90
9209;DHT22;4639;48.862;9.188;2024-01-07T05:31:43;5.60;99.90
9209;DHT22;4639;48.862;9.188;2024-01-07T05:34:09;5.60;99.90
9209;DHT22;4639;48.862;9.188;2024-01-07T05:36:35;5.60;99.90
9209;DHT22;4639;48.862;9.188;2024-01-07T05:39:00;5.60;99.90
9209;DHT22;4639;48.862;9.188;2024-01-07T05:41:26;5.50;99.90
9209;DHT22;4639;48.862;9.188;2024-01-07T05:43:52;5.50;99.90
9209;DHT22;4639;48.862;9.188;2024-01-07T05:46:17;5.50;99.90
9209;DHT22;4639;48.862;9.188;2024-01-07T05:48:44;5.50;99.90
9209;DHT22;4639;48.862;9.188;2024-01-07T05:51:10;5.40;99.90
9209;DHT22;4639;48.862;9.188;2024-01-07T05:53:36;5.50;99.90
9209;DHT22;4639;48.862;9.188;2024-01-07T05:56:02;5.60;99.90
9209;DHT22;4639;48.862;9.188;2024-01-07T05:58:28;5.50;99.90
9209;DHT22;4639;48.862;9.188;2024-01-07T06:00:54;5.50;99.90
9209;DHT22;4639;48.862;9.188;2024-01-07T06:03:19;5.50;99.90
9209;DHT22;4639;48.862;9.188;2024-01-07T06:05:45;5.50;99.90
9209;DHT22;4639;48.862;9.188;2024-01-07T06:08:11;5.50;99.90
9209;DHT22;4639;48.862;9.188;2024-01-07T06:10:37;5.60;99.90
9209;DHT22;4639;48.862;9.188;2024-01-07T06:13:02;5.60;99.90
9209;DHT22;4639;48.862;9.188;2024-01-07T06:15:29;5.70;99.90
9209;DHT22;4639;48.862;9.188;2024-01-07T06:17:54;5.60;99.90
9209;DHT22;4639;48.862;9.188;2024-01-07T06:20:20;5.70;99.90
9209;DHT22;4639;48.862;9.188;2024-01-07T06:22:46;5.60;99.90
9209;DHT22;4639;48.862;9.188;2024-01-07T06:25:12;5.50;99.90
9209;DHT22;4639;48.862;9.188;2024-01-07T06:27:40;5.50;99.90
9209;DHT22;4639;48.862;9.188;2024-01-07T06:30:07;5.40;99.90
9209;DHT22;4639;48.862;9.188;2024-01-07T06:32:32;5.30;99.90
9209;DHT22;4639;48.862;9.188;2024-01-07T06:34:58;5.30;99.90
9209;DHT22;4639;48.862;9.188;2024-01-07T06:37:24;5.40;99.90
9209;DHT22;4639;48.862;9.188;2024-01-07T06:39:50;5.40;99.90
9209;DHT22;4639;48.862;9.188;2024-01-07T06:42:16;5.40;99.90
9209;DHT22;4639;48.862;9.188;2024-01-07T06:44:42;5.40;99.90
9209;DHT22;4639;48.862;9.188;2024-01-07T06:47:07;5.30;99.90
9209;DHT22;4639;48.862;9.188;2024-01-07T06:49:33;5.30;99.90
9209;DHT22;4639;48.862;9.188;2024-01-07T06:51:59;5.30;99.90
9209;DHT22;4639;48.862;9.188;2024-01-07T06:54:25;5.20;99.90
9209;DHT22;4639;48.862;9.188;2024-01-07T06:56:50;5.20;99.90
9209;DHT22;4639;48.862;9.188;2024-01-07T06:59:16;5.20;99.90
9209;DHT22;4639;48.862;9.188;2024-01-07T07:01:42;5.30;99.90
9209;DHT22;4639;48.862;9.188;2024-01-07T07:04:07;5.20;99.90
9209;DHT22;4639;48.862;9.188;2024-01-07T07:06:33;5.20;99.90
9209;DHT22;4639;48.862;9.188;2024-01-07T07:09:00;5.10;99.90
9209;DHT22;4639;48.862;9.188;2024-01-07T07:11:25;5.00;99.90
9209;DHT22;4639;48.862;9.188;2024-01-07T07:13:51;5.00;99.90
9209;DHT22;4639;48.862;9.188;2024-01-07T07:16:17;5.00;99.90
9209;DHT22;4639;48.862;9.188;2024-01-07T07:18:42;4.90;99.90
9209;DHT22;4639;48.862;9.188;2024-01-07T07:21:08;5.00;99.90
9209;DHT22;4639;48.862;9.188;2024-01-07T07:23:33;4.90;99.90
9209;DHT22;4639;48.862;9.188;2024-01-07T07:25:59;4.90;99.90
9209;DHT22;4639;48.862;9.188;2024-01-07T07:28:24;4.90;99.90
9209;DHT22;4639;48.862;9.188;2024-01-07T07:30:50;5.10;99.90
9209;DHT22;4639;48.862;9.188;2024-01-07T07:33:16;4.90;99.90
9209;DHT22;4639;48.862;9.188;2024-01-07T07:35:42;4.90;99.90
9209;DHT22;4639;48.862;9.188;2024-01-07T07:38:08;5.00;99.90
9209;DHT22;4639;48.862;9.188;2024-01-07T07:40:33;4.90;99.90
9209;DHT22;4639;48.862;9.188;2024-01-07T07:42:59;4.90;99.90
9209;DHT22;4639;48.862;9.188;2024-01-07T07:45:25;4.80;99.90
9209;DHT22;4639;48.862;9.188;2024-01-07T07:47:51;4.80;99.90
9209;DHT22;4639;48.862;9.188;2024-01-07T07:50:16;4.80;99.90
9209;DHT22;4639;48.862;9.188;2024-01-07T07:52:42;4.80;99.90
9209;DHT22;4639;48.862;9.188;2024-01-07T07:55:11;4.80;99.90
9209;DHT22;4639;48.862;9.188;2024-01-07T07:57:36;4.90;99.90
9209;DHT22;4639;48.862;9.188;2024-01-07T08:00:07;4.90;99.90
9209;DHT22;4639;48.862;9.188;2024-01-07T08:02:32;4.90;99.90
9209;DHT22;4639;48.862;9.188;2024-01-07T08:04:58;5.00;99.90
9209;DHT22;4639;48.862;9.188;2024-01-07T08:07:24;4.90;99.90
9209;DHT22;4639;48.862;9.188;2024-01-07T08:09:50;4.90;99.90
9209;DHT22;4639;48.862;9.188;2024-01-07T08:12:16;4.90;99.90
9209;DHT22;4639;48.862;9.188;2024-01-07T08:14:41;4.90;99.90
9209;DHT22;4639;48.862;9.188;2024-01-07T08:17:07;5.00;99.90
9209;DHT22;4639;48.862;9.188;2024-01-07T08:19:33;5.00;99.90
9209;DHT22;4639;48.862;9.188;2024-01-07T08:21:59;5.10;99.90
9209;DHT22;4639;48.862;9.188;2024-01-07T08:24:25;5.00;99.90
9209;DHT22;4639;48.862;9.188;2024-01-07T08:26:50;5.00;99.90
9209;DHT22;4639;48.862;9.188;2024-01-07T08:29:17;4.90;99.90
9209;DHT22;4639;48.862;9.188;2024-01-07T08:31:42;4.90;99.90
9209;DHT22;4639;48.862;9.188;2024-01-07T08:34:08;4.90;99.90
9209;DHT22;4639;48.862;9.188;2024-01-07T08:36:34;4.80;99.90
9209;DHT22;4639;48.862;9.188;2024-01-07T08:38:59;4.80;99.90
9209;DHT22;4639;48.862;9.188;2024-01-07T08:41:25;4.70;99.90
9209;DHT22;4639;48.862;9.188;2024-01-07T08:43:51;4.70;99.90
9209;DHT22;4639;48.862;9.188;2024-01-07T08:46:19;4.80;99.90
9209;DHT22;4639;48.862;9.188;2024-01-07T08:48:45;4.70;99.90
9209;DHT22;4639;48.862;9.188;2024-01-07T08:51:11;4.70;99.90
9209;DHT22;4639;48.862;9.188;2024-01-07T08:53:36;4.70;99.90
9209;DHT22;4639;48.862;9.188;2024-01-07T08:56:02;4.60;99.90
9209;DHT22;4639;48.862;9.188;2024-01-07T08:58:27;4.70;99.90
9209;DHT22;4639;48.862;9.188;2024-01-07T09:00:53;4.70;99.90
9209;DHT22;4639;48.862;9.188;2024-01-07T09:03:18;4.70;99.90
9209;DHT22;4639;48.862;9.188;2024-01-07T09:05:44;4.70;99.90
9209;DHT22;4639;48.862;9.188;2024-01-07T09:08:10;4.80;99.90
9209;DHT22;4639;48.862;9.188;2024-01-07T09:10:36;4.80;99.90
9209;DHT22;4639;48.862;9.188;2024-01-07T09:13:05;4.80;99.90
9209;DHT22;4639;48.862;9.188;2024-01-07T09:15:30;4.90;99.90
9209;DHT22;4639;48.862;9.188;2024-01-07T09:17:56;4.90;99.90
9209;DHT22;4639;48.862;9.188;2024-01-07T09:20:21;4.90;99.90
9209;DHT22;4639;48.862;9.188;2024-01-07T09:22:47;4.90;99.90
9209;DHT22;4639;48.862;9.188;2024-01-07T09:25:13;4.90;99.90
9209;DHT22;4639;48.862;9.188;2024-01-07T09:27:39;5.00;99.90
9209;DHT22;4639;48.862;9.188;2024-01-07T09:30:05;5.00;99.90
9209;DHT22;4639;48.862;9.188;2024-01-07T09:32:31;5.00;99.90
9209;DHT22;4639;48.862;9.188;2024-01-07T09:34:57;5.00;99.90
9209;DHT22;4639;48.862;9.188;2024-01-07T09:37:23;5.00;99.90
9209;DHT22;4639;48.862;9.188;2024-01-07T09:39:48;5.00;99.90
9209;DHT22;4639;48.862;9.188;2024-01-07T09:42:18;5.00;99.90
9209;DHT22;4639;48.862;9.188;2024-01-07T09:44:44;5.00;99.90
9209;DHT22;4639;48.862;9.188;2024-01-07T09:47:12;4.90;99.90
9209;DHT22;4639;48.862;9.188;2024-01-07T09:49:41;4.80;99.90
9209;DHT22;4639;48.862;9.188;2024-01-07T09:52:09;4.80;99.90
9209;DHT22;4639;48.862;9.188;2024-01-07T09:54:38;4.80;99.90
9209;DHT22;4639;48.862;9.188;2024-01-07T09:57:06;4.90;99.90
9209;DHT22;4639;48.862;9.188;2024-01-07T09:59:32;4.90;99.90
9209;DHT22;4639;48.862;9.188;2024-01-07T10:01:58;4.80;99.90
9209;DHT22;4639;48.862;9.188;2024-01-07T10:04:24;4.70;99.90
9209;DHT22;4639;48.862;9.188;2024-01-07T10:06:51;4.70;99.90
9209;DHT22;4639;48.862;9.188;2024-01-07T10:09:18;4.50;99.90
9209;DHT22;4639;48.862;9.188;2024-01-07T10:11:44;4.60;99.90
9209;DHT22;4639;48.862;9.188;2024-01-07T10:14:10;4.60;99.90
9209;DHT22;4639;48.862;9.188;2024-01-07T10:16:36;4.60;99.90
9209;DHT22;4639;48.862;9.188;2024-01-07T10:19:02;4.50;99.90
9209;DHT22;4639;48.862;9.188;2024-01-07T10:21:27;4.50;99.90
9209;DHT22;4639;48.862;9.188;2024-01-07T10:24:12;4.40;99.90
9209;DHT22;4639;48.862;9.188;2024-01-07T10:26:39;4.30;99.90
9209;DHT22;4639;48.862;9.188;2024-01-07T10:29:06;4.30;99.90
9209;DHT22;4639;48.862;9.188;2024-01-07T10:31:32;4.40;99.90
9209;DHT22;4639;48.862;9.188;2024-01-07T10:33:58;4.50;99.90
9209;DHT22;4639;48.862;9.188;2024-01-07T10:36:25;4.50;99.90
9209;DHT22;4639;48.862;9.188;2024-01-07T10:38:51;4.50;99.90
9209;DHT22;4639;48.862;9.188;2024-01-07T10:41:18;4.50;99.90
9209;DHT22;4639;48.862;9.188;2024-01-07T10:43:47;4.50;99.90
9209;DHT22;4639;48.862;9.188;2024-01-07T10:46:14;4.50;99.90
9209;DHT22;4639;48.862;9.188;2024-01-07T10:48:59;4.60;99.90
9209;DHT22;4639;48.862;9.188;2024-01-07T10:51:28;4.60;99.90
9209;DHT22;4639;48.862;9.188;2024-01-07T10:53:55;4.60;99.90
9209;DHT22;4639;48.862;9.188;2024-01-07T10:56:25;4.50;99.90
9209;DHT22;4639;48.862;9.188;2024-01-07T10:58:54;4.60;99.90
9209;DHT22;4639;48.862;9.188;2024-01-07T11:01:20;4.60;99.90
9209;DHT22;4639;48.862;9.188;2024-01-07T11:04:00;4.60;99.90
9209;DHT22;4639;48.862;9.188;2024-01-07T11:06:31;4.50;99.90
9209;DHT22;4639;48.862;9.188;2024-01-07T11:09:03;4.40;99.90
9209;DHT22;4639;48.862;9.188;2024-01-07T11:11:41;4.40;99.90
9209;DHT22;4639;48.862;9.188;2024-01-07T11:14:37;4.40;99.90
9209;DHT22;4639;48.862;9.188;2024-01-07T11:17:08;4.40;99.90
9209;DHT22;4639;48.862;9.188;2024-01-07T11:19:35;4.40;99.90
9209;DHT22;4639;48.862;9.188;2024-01-07T11:22:29;4.40;99.90
9209;DHT22;4639;48.862;9.188;2024-01-07T11:24:55;4.40;99.90
9209;DHT22;4639;48.862;9.188;2024-01-07T11:27:25;4.30;99.90
9209;DHT22;4639;48.862;9.188;2024-01-07T11:29:55;4.30;99.90
9209;DHT22;4639;48.862;9.188;2024-01-07T11:32:27;4.30;99.90
9209;DHT22;4639;48.862;9.188;2024-01-07T11:34:54;4.20;99.90
9209;DHT22;4639;48.862;9.188;2024-01-07T11:37:22;4.20;99.90
9209;DHT22;4639;48.862;9.188;2024-01-07T11:39:50;4.10;99.90
9209;DHT22;4639;48.862;9.188;2024-01-07T11:42:16;4.10;99.90
9209;DHT22;4639;48.862;9.188;2024-01-07T11:44:48;4.10;99.90
9209;DHT22;4639;48.862;9.188;2024-01-07T11:47:16;4.20;99.90
9209;DHT22;4639;48.862;9.188;2024-01-07T11:49:41;4.10;99.90
9209;DHT22;4639;48.862;9.188;2024-01-07T11:52:08;4.10;99.90
9209;DHT22;4639;48.862;9.188;2024-01-07T11:54:35;4.10;99.90
9209;DHT22;4639;48.862;9.188;2024-01-07T11:57:01;4.00;99.90
9209;DHT22;4639;48.862;9.188;2024-01-07T11:59:29;4.00;99.90
9209;DHT22;4639;48.862;9.188;2024-01-07T12:01:55;4.20;99.90
9209;DHT22;4639;48.862;9.188;2024-01-07T12:04:21;4.20;99.90
9209;DHT22;4639;48.862;9.188;2024-01-07T12:06:48;4.10;99.90
9209;DHT22;4639;48.862;9.188;2024-01-07T12:09:14;4.10;99.90
9209;DHT22;4639;48.862;9.188;2024-01-07T12:11:40;4.10;99.90
9209;DHT22;4639;48.862;9.188;2024-01-07T12:14:07;4.00;99.90
9209;DHT22;4639;48.862;9.188;2024-01-07T12:16:34;3.90;99.90
9209;DHT22;4639;48.862;9.188;2024-01-07T12:18:59;3.80;99.90
9209;DHT22;4639;48.862;9.188;2024-01-07T12:21:25;3.80;99.90
9209;DHT22;4639;48.862;9.188;2024-01-07T12:23:52;3.80;99.90
9209;DHT22;4639;48.862;9.188;2024-01-07T12:26:17;3.70;99.90
9209;DHT22;4639;48.862;9.188;2024-01-07T12:28:45;3.60;99.90
9209;DHT22;4639;48.862;9.188;2024-01-07T12:31:17;3.60;99.90
9209;DHT22;4639;48.862;9.188;2024-01-07T12:33:42;3.60;99.90
9209;DHT22;4639;48.862;9.188;2024-01-07T12:36:08;3.50;99.90
9209;DHT22;4639;48.862;9.188;2024-01-07T12:38:36;3.50;99.90
9209;DHT22;4639;48.862;9.188;2024-01-07T12:41:03;3.60;99.90
9209;DHT22;4639;48.862;9.188;2024-01-07T12:43:29;3.50;99.90
9209;DHT22;4639;48.862;9.188;2024-01-07T12:45:55;3.60;99.90
9209;DHT22;4639;48.862;9.188;2024-01-07T12:48:22;3.60;99.90
9209;DHT22;4639;48.862;9.188;2024-01-07T12:50:48;3.60;99.90
9209;DHT22;4639;48.862;9.188;2024-01-07T12:53:14;3.60;99.90
9209;DHT22;4639;48.862;9.188;2024-01-07T12:55:40;3.80;99.90
9209;DHT22;4639;48.862;9.188;2024-01-07T12:58:05;3.50;99.90
9209;DHT22;4639;48.862;9.188;2024-01-07T13:00:31;3.30;99.90
9209;DHT22;4639;48.862;9.188;2024-01-07T13:02:57;3.30;99.90
9209;DHT22;4639;48.862;9.188;2024-01-07T13:05:22;3.30;99.90
9209;DHT22;4639;48.862;9.188;2024-01-07T13:07:48;3.30;99.90
9209;DHT22;4639;48.862;9.188;2024-01-07T13:10:15;3.30;99.90
9209;DHT22;4639;48.862;9.188;2024-01-07T13:12:41;3.30;99.90
9209;DHT22;4639;48.862;9.188;2024-01-07T13:15:08;3.10;99.90
9209;DHT22;4639;48.862;9.188;2024-01-07T13:17:33;3.10;99.90
9209;DHT22;4639;48.862;9.188;2024-01-07T13:20:00;3.10;99.90
9209;DHT22;4639;48.862;9.188;2024-01-07T13:22:25;3.10;99.90
9209;DHT22;4639;48.862;9.188;2024-01-07T13:24:51;3.00;99.90
9209;DHT22;4639;48.862;9.188;2024-01-07T13:27:19;3.00;99.90
9209;DHT22;4639;48.862;9.188;2024-01-07T13:29:45;3.10;99.90
9209;DHT22;4639;48.862;9.188;2024-01-07T13:32:13;3.20;99.90
9209;DHT22;4639;48.862;9.188;2024-01-07T13:34:45;3.20;99.90
9209;DHT22;4639;48.862;9.188;2024-01-07T13:37:11;3.40;99.90
9209;DHT22;4639;48.862;9.188;2024-01-07T13:39:37;3.20;99.90
9209;DHT22;4639;48.862;9.188;2024-01-07T13:42:03;3.10;99.90
9209;DHT22;4639;48.862;9.188;2024-01-07T13:44:30;3.00;99.90
9209;DHT22;4639;48.862;9.188;2024-01-07T13:46:55;2.80;99.90
9209;DHT22;4639;48.862;9.188;2024-01-07T13:49:21;2.80;99.90
9209;DHT22;4639;48.862;9.188;2024-01-07T13:51:47;2.80;99.90
9209;DHT22;4639;48.862;9.188;2024-01-07T13:54:13;2.80;99.90
9209;DHT22;4639;48.862;9.188;2024-01-07T13:56:43;2.90;99.90
9209;DHT22;4639;48.862;9.188;2024-01-07T13:59:10;2.90;99.90
9209;DHT22;4639;48.862;9.188;2024-01-07T14:01:36;2.80;99.90
9209;DHT22;4639;48.862;9.188;2024-01-07T14:04:02;2.80;99.90
9209;DHT22;4639;48.862;9.188;2024-01-07T14:06:28;2.80;99.90
9209;DHT22;4639;48.862;9.188;2024-01-07T14:08:53;2.80;99.90
9209;DHT22;4639;48.862;9.188;2024-01-07T14:11:20;2.80;99.90
9209;DHT22;4639;48.862;9.188;2024-01-07T14:13:46;2.80;99.90
9209;DHT22;4639;48.862;9.188;2024-01-07T14:16:13;2.80;99.90
9209;DHT22;4639;48.862;9.188;2024-01-07T14:18:39;2.80;99.90
9209;DHT22;4639;48.862;9.188;2024-01-07T14:21:05;2.70;99.90
9209;DHT22;4639;48.862;9.188;2024-01-07T14:23:30;2.80;99.90
9209;DHT22;4639;48.862;9.188;2024-01-07T14:25:57;2.80;99.90
9209;DHT22;4639;48.862;9.188;2024-01-07T14:28:22;2.80;99.90
9209;DHT22;4639;48.862;9.188;2024-01-07T14:30:48;2.70;99.90
9209;DHT22;4639;48.862;9.188;2024-01-07T14:33:14;2.70;99.90
9209;DHT22;4639;48.862;9.188;2024-01-07T14:35:40;2.70;99.90
9209;DHT22;4639;48.862;9.188;2024-01-07T14:38:06;2.60;99.90
9209;DHT22;4639;48.862;9.188;2024-01-07T14:40:31;2.60;99.90
9209;DHT22;4639;48.862;9.188;2024-01-07T14:42:57;2.60;99.90
9209;DHT22;4639;48.862;9.188;2024-01-07T14:45:28;2.70;99.90
9209;DHT22;4639;48.862;9.188;2024-01-07T14:47:54;2.70;99.90
9209;DHT22;4639;48.862;9.188;2024-01-07T14:50:20;2.70;99.90
9209;DHT22;4639;48.862;9.188;2024-01-07T14:52:46;2.70;99.90
9209;DHT22;4639;48.862;9.188;2024-01-07T14:55:12;2.70;99.90
9209;DHT22;4639;48.862;9.188;2024-01-07T14:57:41;2.70;99.90
9209;DHT22;4639;48.862;9.188;2024-01-07T15:00:07;2.50;99.90
9209;DHT22;4639;48.862;9.188;2024-01-07T15:02:34;2.50;99.90
9209;DHT22;4639;48.862;9.188;2024-01-07T15:05:00;2.40;99.90
9209;DHT22;4639;48.862;9.188;2024-01-07T15:07:25;2.40;99.90
9209;DHT22;4639;48.862;9.188;2024-01-07T15:09:51;2.30;99.90
9209;DHT22;4639;48.862;9.188;2024-01-07T15:12:17;2.30;99.90
9209;DHT22;4639;48.862;9.188;2024-01-07T15:14:44;2.40;99.90
9209;DHT22;4639;48.862;9.188;2024-01-07T15:17:09;2.40;99.90
9209;DHT22;4639;48.862;9.188;2024-01-07T15:19:35;2.30;99.90
9209;DHT22;4639;48.862;9.188;2024-01-07T15:22:01;2.30;99.90
9209;DHT22;4639;48.862;9.188;2024-01-07T15:24:27;2.30;99.90
9209;DHT22;4639;48.862;9.188;2024-01-07T15:26:52;2.20;99.90
9209;DHT22;4639;48.862;9.188;2024-01-07T15:29:18;2.20;99.90
9209;DHT22;4639;48.862;9.188;2024-01-07T15:31:45;2.10;99.90
9209;DHT22;4639;48.862;9.188;2024-01-07T15:34:11;2.00;99.90
9209;DHT22;4639;48.862;9.188;2024-01-07T15:36:38;2.20;99.90
9209;DHT22;4639;48.862;9.188;2024-01-07T15:39:03;2.00;99.90
9209;DHT22;4639;48.862;9.188;2024-01-07T15:41:30;1.90;99.90
9209;DHT22;4639;48.862;9.188;2024-01-07T15:43:56;1.80;99.90
9209;DHT22;4639;48.862;9.188;2024-01-07T15:46:21;1.80;99.90
9209;DHT22;4639;48.862;9.188;2024-01-07T15:48:47;1.80;99.90
9209;DHT22;4639;48.862;9.188;2024-01-07T15:51:12;1.80;99.90
9209;DHT22;4639;48.862;9.188;2024-01-07T15:53:38;1.80;99.90
9209;DHT22;4639;48.862;9.188;2024-01-07T15:56:04;1.80;99.90
9209;DHT22;4639;48.862;9.188;2024-01-07T15:58:33;1.90;99.90
9209;DHT22;4639;48.862;9.188;2024-01-07T16:01:00;1.80;99.90
9209;DHT22;4639;48.862;9.188;2024-01-07T16:03:28;1.80;99.90
9209;DHT22;4639;48.862;9.188;2024-01-07T16:05:53;1.70;99.90
9209;DHT22;4639;48.862;9.188;2024-01-07T16:08:19;1.80;99.90
9209;DHT22;4639;48.862;9.188;2024-01-07T16:10:46;1.70;99.90